sensor_id;sensor_type;location;lat;lon;timestamp;temperature;humidity
4813;DHT22;2420;51.202;8.698;2024-01-10T00:00:18;-8.30;1.00
4813;DHT22;2420;51.202;8.698;2024-01-10T00:02:44;-8.30;1.00
4813;DHT22;2420;51.202;8.698;2024-01-10T00:05:10;-8.40;1.00
4813;DHT22;2420;51.202;8.698;2024-01-10T00:07:38;-8.10;1.00
4813;DHT22;2420;51.202;8.698;2024-01-10T00:10:04;-8.10;1.00
4813;DHT22;2420;51.202;8.698;2024-01-10T00:12:30;-8.30;1.00
4813;DHT22;2420;51.202;8.698;2024-01-10T00:15:00;-8.30;1.00
4813;DHT22;2420;51.202;8.698;2024-01-10T00:17:26;-8.20;1.00
4813;DHT22;2420;51.202;8.698;2024-01-10T00:19:51;-8.10;1.00
4813;DHT22;2420;51.202;8.698;2024-01-10T00:22:17;-8.30;1.00
4813;DHT22;2420;51.202;8.698;2024-01-10T00:24:42;-8.20;1.00
4813;DHT22;2420;51.202;8.698;2024-01-10T00:27:08;-8.30;1.00
4813;DHT22;2420;51.202;8.698;2024-01-10T00:29:33;-7.90;1.00
4813;DHT22;2420;51.202;8.698;2024-01-10T00:31:59;-8.00;1.00
4813;DHT22;2420;51.202;8.698;2024-01-10T00:34:25;-8.10;1.00
4813;DHT22;2420;51.202;8.698;2024-01-10T00:36:50;-7.90;1.00
4813;DHT22;2420;51.202;8.698;2024-01-10T00:39:16;-8.00;1.00
4813;DHT22;2420;51.202;8.698;2024-01-10T00:41:41;-8.10;1.00
4813;DHT22;2420;51.202;8.698;2024-01-10T00:44:07;-8.00;1.00
4813;DHT22;2420;51.202;8.698;2024-01-10T00:46:32;-8.10;1.00
4813;DHT22;2420;51.202;8.698;2024-01-10T00:48:58;-8.10;1.00
4813;DHT22;2420;51.202;8.698;2024-01-10T00:51:24;-8.30;1.00
4813;DHT22;2420;51.202;8.698;2024-01-10T00:53:49;-7.90;1.00
4813;DHT22;2420;51.202;8.698;2024-01-10T00:56:15;-8.00;1.00
4813;DHT22;2420;51.202;8.698;2024-01-10T00:58:40;-8.00;1.00
4813;DHT22;2420;51.202;8.698;2024-01-10T01:01:07;-7.60;1.00
4813;DHT22;2420;51.202;8.698;2024-01-10T01:03:32;-7.70;1.00
4813;DHT22;2420;51.202;8.698;2024-01-10T01:05:58;-7.80;1.00
4813;DHT22;2420;51.202;8.698;2024-01-10T01:08:23;-8.10;1.00
4813;DHT22;2420;51.202;8.698;2024-01-10T01:10:49;-7.80;1.00
4813;DHT22;2420;51.202;8.698;2024-01-10T01:13:14;-8.00;1.00
4813;DHT22;2420;51.202;8.698;2024-01-10T01:15:40;-8.10;1.00
4813;DHT22;2420;51.202;8.698;2024-01-10T01:18:05;-8.30;1.00
4813;DHT22;2420;51.202;8.698;2024-01-10T01:20:31;-8.10;1.00
4813;DHT22;2420;51.202;8.698;2024-01-10T01:22:57;-8.30;1.00
4813;DHT22;2420;51.202;8.698;2024-01-10T01:25:22;-8.40;1.00
4813;DHT22;2420;51.202;8.698;2024-01-10T01:27:48;-8.40;1.00
4813;DHT22;2420;51.202;8.698;2024-01-10T01:30:13;-8.40;1.00
4813;DHT22;2420;51.202;8.698;2024-01-10T01:32:39;-8.50;1.00
4813;DHT22;2420;51.202;8.698;2024-01-10T01:35:04;-8.60;1.00
4813;DHT22;2420;51.202;8.698;2024-01-10T01:37:30;-8.30;1.00
4813;DHT22;2420;51.202;8.698;2024-01-10T01:39:56;-8.60;1.00
4813;DHT22;2420;51.202;8.698;2024-01-10T01:42:21;-8.50;1.00
4813;DHT22;2420;51.202;8.698;2024-01-10T01:44:47;-8.60;1.00
4813;DHT22;2420;51.202;8.698;2024-01-10T01:47:12;-8.70;1.00
4813;DHT22;2420;51.202;8.698;2024-01-10T01:49:38;-8.60;1.00
4813;DHT22;2420;51.202;8.698;2024-01-10T01:52:04;-8.80;1.00
4813;DHT22;2420;51.202;8.698;2024-01-10T01:54:31;-8.80;1.00
4813;DHT22;2420;51.202;8.698;2024-01-10T01:56:58;-9.00;1.00
4813;DHT22;2420;51.202;8.698;2024-01-10T01:59:24;-8.70;1.00
4813;DHT22;2420;51.202;8.698;2024-01-10T02:01:52;-8.90;1.00
4813;DHT22;2420;51.202;8.698;2024-01-10T02:04:18;-8.90;1.00
4813;DHT22;2420;51.202;8.698;2024-01-10T02:06:45;-9.10;1.00
4813;DHT22;2420;51.202;8.698;2024-01-10T02:09:10;-9.00;1.00
4813;DHT22;2420;51.202;8.698;2024-01-10T02:11:36;-8.90;1.00
4813;DHT22;2420;51.202;8.698;2024-01-10T02:14:01;-9.00;1.00
4813;DHT22;2420;51.202;8.698;2024-01-10T02:16:28;-9.20;1.00
4813;DHT22;2420;51.202;8.698;2024-01-10T02:18:53;-9.00;1.00
4813;DHT22;2420;51.202;8.698;2024-01-10T02:21:22;-9.10;1.00
4813;DHT22;2420;51.202;8.698;2024-01-10T02:23:48;-9.20;1.00
4813;DHT22;2420;51.202;8.698;2024-01-10T02:26:15;-9.20;1.00
4813;DHT22;2420;51.202;8.698;2024-01-10T02:28:40;-9.00;1.00
4813;DHT22;2420;51.202;8.698;2024-01-10T02:31:06;-9.20;1.00
4813;DHT22;2420;51.202;8.698;2024-01-10T02:33:32;-8.90;1.00
4813;DHT22;2420;51.202;8.698;2024-01-10T02:35:58;-9.10;1.00
4813;DHT22;2420;51.202;8.698;2024-01-10T02:38:23;-9.10;1.00
4813;DHT22;2420;51.202;8.698;2024-01-10T02:40:49;-9.30;1.00
4813;DHT22;2420;51.202;8.698;2024-01-10T02:43:15;-9.20;1.00
4813;DHT22;2420;51.202;8.698;2024-01-10T02:45:41;-9.20;1.00
4813;DHT22;2420;51.202;8.698;2024-01-10T02:48:07;-9.30;1.00
4813;DHT22;2420;51.202;8.698;2024-01-10T02:50:32;-9.40;1.00
4813;DHT22;2420;51.202;8.698;2024-01-10T02:52:58;-9.20;1.00
4813;DHT22;2420;51.202;8.698;2024-01-10T02:55:23;-9.20;1.00
4813;DHT22;2420;51.202;8.698;2024-01-10T02:57:49;-9.20;1.00
4813;DHT22;2420;51.202;8.698;2024-01-10T03:00:15;-9.20;1.00
4813;DHT22;2420;51.202;8.698;2024-01-10T03:02:40;-9.10;1.00
4813;DHT22;2420;51.202;8.698;2024-01-10T03:05:06;-9.00;1.00
4813;DHT22;2420;51.202;8.698;2024-01-10T03:07:31;-9.10;1.00
4813;DHT22;2420;51.202;8.698;2024-01-10T03:09:57;-9.30;1.00
4813;DHT22;2420;51.202;8.698;2024-01-10T03:12:22;-9.10;1.00
4813;DHT22;2420;51.202;8.698;2024-01-10T03:14:48;-9.10;1.00
4813;DHT22;2420;51.202;8.698;2024-01-10T03:17:14;-8.90;1.00
4813;DHT22;2420;51.202;8.698;2024-01-10T03:19:39;-9.20;1.00
4813;DHT22;2420;51.202;8.698;2024-01-10T03:22:09;-9.00;1.00
4813;DHT22;2420;51.202;8.698;2024-01-10T03:24:34;-9.00;1.00
4813;DHT22;2420;51.202;8.698;2024-01-10T03:27:00;-9.10;1.00
4813;DHT22;2420;51.202;8.698;2024-01-10T03:29:25;-9.00;1.00
4813;DHT22;2420;51.202;8.698;2024-01-10T03:31:51;-8.70;1.00
4813;DHT22;2420;51.202;8.698;2024-01-10T03:34:17;-8.90;1.00
4813;DHT22;2420;51.202;8.698;2024-01-10T03:36:43;-8.80;1.00
4813;DHT22;2420;51.202;8.698;2024-01-10T03:39:09;-8.90;1.00
4813;DHT22;2420;51.202;8.698;2024-01-10T03:41:34;-9.00;1.00
4813;DHT22;2420;51.202;8.698;2024-01-10T03:44:00;-9.20;1.00
4813;DHT22;2420;51.202;8.698;2024-01-10T03:46:25;-9.20;1.00
4813;DHT22;2420;51.202;8.698;2024-01-10T03:48:52;-9.10;1.00
4813;DHT22;2420;51.202;8.698;2024-01-10T03:51:18;-9.20;1.00
4813;DHT22;2420;51.202;8.698;2024-01-10T03:53:45;-9.00;1.00
4813;DHT22;2420;51.202;8.698;2024-01-10T03:56:12;-9.10;1.00
4813;DHT22;2420;51.202;8.698;2024-01-10T03:58:37;-9.30;1.00
4813;DHT22;2420;51.202;8.698;2024-01-10T04:01:07;-9.30;1.00
4813;DHT22;2420;51.202;8.698;2024-01-10T04:03:33;-9.10;1.00
4813;DHT22;2420;51.202;8.698;2024-01-10T04:05:59;-9.00;1.00
4813;DHT22;2420;51.202;8.698;2024-01-10T04:08:24;-9.20;1.00
4813;DHT22;2420;51.202;8.698;2024-01-10T04:10:50;-9.10;1.00
4813;DHT22;2420;51.202;8.698;2024-01-10T04:13:15;-8.90;1.00
4813;DHT22;2420;51.202;8.698;2024-01-10T04:15:41;-8.80;1.00
4813;DHT22;2420;51.202;8.698;2024-01-10T04:18:06;-8.90;1.00
4813;DHT22;2420;51.202;8.698;2024-01-10T04:20:32;-8.90;1.00
4813;DHT22;2420;51.202;8.698;2024-01-10T04:22:58;-9.10;1.00
4813;DHT22;2420;51.202;8.698;2024-01-10T04:25:23;-9.00;1.00
4813;DHT22;2420;51.202;8.698;2024-01-10T04:27:49;-9.00;1.00
4813;DHT22;2420;51.202;8.698;2024-01-10T04:30:16;-9.10;1.00
4813;DHT22;2420;51.202;8.698;2024-01-10T04:32:41;-9.00;1.00
4813;DHT22;2420;51.202;8.698;2024-01-10T04:35:07;-9.00;1.00
4813;DHT22;2420;51.202;8.698;2024-01-10T04:37:32;-9.20;1.00
4813;DHT22;2420;51.202;8.698;2024-01-10T04:39:58;-9.10;1.00
4813;DHT22;2420;51.202;8.698;2024-01-10T04:42:23;-9.00;1.00
4813;DHT22;2420;51.202;8.698;2024-01-10T04:44:49;-9.00;1.00
4813;DHT22;2420;51.202;8.698;2024-01-10T04:47:15;-9.00;1.00
4813;DHT22;2420;51.202;8.698;2024-01-10T04:49:40;-9.10;1.00
4813;DHT22;2420;51.202;8.698;2024-01-10T04:52:06;-9.20;1.00
4813;DHT22;2420;51.202;8.698;2024-01-10T04:54:31;-9.20;1.00
4813;DHT22;2420;51.202;8.698;2024-01-10T04:56:57;-8.90;1.00
4813;DHT22;2420;51.202;8.698;2024-01-10T04:59:22;-8.90;1.00
4813;DHT22;2420;51.202;8.698;2024-01-10T05:01:48;-9.00;1.00
4813;DHT22;2420;51.202;8.698;2024-01-10T05:04:14;-9.00;1.00
4813;DHT22;2420;51.202;8.698;2024-01-10T05:06:39;-8.70;1.00
4813;DHT22;2420;51.202;8.698;2024-01-10T05:09:05;-8.80;1.00
4813;DHT22;2420;51.202;8.698;2024-01-10T05:11:31;-8.90;1.00
4813;DHT22;2420;51.202;8.698;2024-01-10T05:13:57;-8.80;1.00
4813;DHT22;2420;51.202;8.698;2024-01-10T05:16:23;-8.80;1.00
4813;DHT22;2420;51.202;8.698;2024-01-10T05:18:48;-8.80;1.00
4813;DHT22;2420;51.202;8.698;2024-01-10T05:21:14;-8.90;1.00
4813;DHT22;2420;51.202;8.698;2024-01-10T05:23:39;-8.80;1.00
4813;DHT22;2420;51.202;8.698;2024-01-10T05:26:05;-8.80;1.00
4813;DHT22;2420;51.202;8.698;2024-01-10T05:28:31;-8.80;1.00
4813;DHT22;2420;51.202;8.698;2024-01-10T05:30:58;-8.70;1.00
4813;DHT22;2420;51.202;8.698;2024-01-10T05:33:23;-8.70;1.00
4813;DHT22;2420;51.202;8.698;2024-01-10T05:35:49;-8.80;1.00
4813;DHT22;2420;51.202;8.698;2024-01-10T05:38:15;-8.70;1.00
4813;DHT22;2420;51.202;8.698;2024-01-10T05:40:40;-8.70;1.00
4813;DHT22;2420;51.202;8.698;2024-01-10T05:43:06;-8.60;1.00
4813;DHT22;2420;51.202;8.698;2024-01-10T05:45:32;-8.50;1.00
4813;DHT22;2420;51.202;8.698;2024-01-10T05:47:58;-8.50;1.00
4813;DHT22;2420;51.202;8.698;2024-01-10T05:50:24;-8.60;1.00
4813;DHT22;2420;51.202;8.698;2024-01-10T05:52:49;-8.80;1.00
4813;DHT22;2420;51.202;8.698;2024-01-10T05:55:15;-8.40;1.00
4813;DHT22;2420;51.202;8.698;2024-01-10T05:57:40;-8.40;1.00
4813;DHT22;2420;51.202;8.698;2024-01-10T06:00:07;-8.40;1.00
4813;DHT22;2420;51.202;8.698;2024-01-10T06:02:36;-8.50;1.00
4813;DHT22;2420;51.202;8.698;2024-01-10T06:05:08;-8.60;1.00
4813;DHT22;2420;51.202;8.698;2024-01-10T06:07:35;-8.50;1.00
4813;DHT22;2420;51.202;8.698;2024-01-10T06:10:00;-8.60;1.00
4813;DHT22;2420;51.202;8.698;2024-01-10T06:12:27;-8.30;1.00
4813;DHT22;2420;51.202;8.698;2024-01-10T06:14:52;-8.40;1.00
4813;DHT22;2420;51.202;8.698;2024-01-10T06:17:18;-8.40;1.00
4813;DHT22;2420;51.202;8.698;2024-01-10T06:19:44;-8.30;1.00
4813;DHT22;2420;51.202;8.698;2024-01-10T06:22:10;-8.30;1.00
4813;DHT22;2420;51.202;8.698;2024-01-10T06:24:36;-8.20;1.00
4813;DHT22;2420;51.202;8.698;2024-01-10T06:27:03;-7.90;1.00
4813;DHT22;2420;51.202;8.698;2024-01-10T06:29:30;-7.80;1.00
4813;DHT22;2420;51.202;8.698;2024-01-10T06:31:55;-8.00;1.00
4813;DHT22;2420;51.202;8.698;2024-01-10T06:34:22;-8.00;1.00
4813;DHT22;2420;51.202;8.698;2024-01-10T06:36:48;-7.80;1.00
4813;DHT22;2420;51.202;8.698;2024-01-10T06:39:13;-7.90;1.00
4813;DHT22;2420;51.202;8.698;2024-01-10T06:41:39;-7.90;1.00
4813;DHT22;2420;51.202;8.698;2024-01-10T06:44:05;-7.60;1.00
4813;DHT22;2420;51.202;8.698;2024-01-10T06:46:32;-7.40;1.00
4813;DHT22;2420;51.202;8.698;2024-01-10T06:48:58;-7.60;1.00
4813;DHT22;2420;51.202;8.698;2024-01-10T06:51:24;-7.40;1.00
4813;DHT22;2420;51.202;8.698;2024-01-10T06:53:50;-7.60;1.00
4813;DHT22;2420;51.202;8.698;2024-01-10T06:56:15;-7.40;1.00
4813;DHT22;2420;51.202;8.698;2024-01-10T06:58:41;-7.40;1.00
4813;DHT22;2420;51.202;8.698;2024-01-10T07:01:13;-7.50;1.00
4813;DHT22;2420;51.202;8.698;2024-01-10T07:03:42;-7.30;1.00
4813;DHT22;2420;51.202;8.698;2024-01-10T07:06:08;-7.40;1.00
4813;DHT22;2420;51.202;8.698;2024-01-10T07:08:33;-7.40;1.00
4813;DHT22;2420;51.202;8.698;2024-01-10T07:10:59;-7.20;1.00
4813;DHT22;2420;51.202;8.698;2024-01-10T07:13:24;-7.20;1.00
4813;DHT22;2420;51.202;8.698;2024-01-10T07:15:50;-7.00;1.00
4813;DHT22;2420;51.202;8.698;2024-01-10T07:18:18;-7.10;1.00
4813;DHT22;2420;51.202;8.698;2024-01-10T07:20:44;-7.30;1.00
4813;DHT22;2420;51.202;8.698;2024-01-10T07:23:09;-7.10;1.00
4813;DHT22;2420;51.202;8.698;2024-01-10T07:25:35;-7.00;1.00
4813;DHT22;2420;51.202;8.698;2024-01-10T07:28:02;-6.80;1.00
4813;DHT22;2420;51.202;8.698;2024-01-10T07:30:28;-7.00;1.00
4813;DHT22;2420;51.202;8.698;2024-01-10T07:32:58;-6.90;1.00
4813;DHT22;2420;51.202;8.698;2024-01-10T07:35:23;-7.00;1.00
4813;DHT22;2420;51.202;8.698;2024-01-10T07:37:49;-7.10;1.00
4813;DHT22;2420;51.202;8.698;2024-01-10T07:40:15;-7.00;1.00
4813;DHT22;2420;51.202;8.698;2024-01-10T07:42:42;-7.00;1.00
4813;DHT22;2420;51.202;8.698;2024-01-10T07:45:08;-7.30;1.00
4813;DHT22;2420;51.202;8.698;2024-01-10T07:47:35;-7.10;1.00
4813;DHT22;2420;51.202;8.698;2024-01-10T07:50:07;-7.00;1.00
4813;DHT22;2420;51.202;8.698;2024-01-10T07:52:34;-7.00;1.00
4813;DHT22;2420;51.202;8.698;2024-01-10T07:55:00;-6.80;1.00
4813;DHT22;2420;51.202;8.698;2024-01-10T07:57:25;-6.80;1.00
4813;DHT22;2420;51.202;8.698;2024-01-10T07:59:52;-6.90;1.00
4813;DHT22;2420;51.202;8.698;2024-01-10T08:02:18;-6.80;1.00
4813;DHT22;2420;51.202;8.698;2024-01-10T08:04:44;-6.90;1.00
4813;DHT22;2420;51.202;8.698;2024-01-10T08:07:10;-6.90;1.00
4813;DHT22;2420;51.202;8.698;2024-01-10T08:09:36;-6.70;1.00
4813;DHT22;2420;51.202;8.698;2024-01-10T08:12:02;-6.40;1.00
4813;DHT22;2420;51.202;8.698;2024-01-10T08:14:28;-6.60;1.00
4813;DHT22;2420;51.202;8.698;2024-01-10T08:16:53;-6.50;1.00
4813;DHT22;2420;51.202;8.698;2024-01-10T08:19:20;-6.30;1.00
4813;DHT22;2420;51.202;8.698;2024-01-10T08:21:46;-6.10;1.00
4813;DHT22;2420;51.202;8.698;2024-01-10T08:24:12;-6.10;1.00
4813;DHT22;2420;51.202;8.698;2024-01-10T08:26:37;-6.10;1.00
4813;DHT22;2420;51.202;8.698;2024-01-10T08:29:03;-6.00;1.00
4813;DHT22;2420;51.202;8.698;2024-01-10T08:31:29;-5.90;1.00
4813;DHT22;2420;51.202;8.698;2024-01-10T08:33:55;-5.90;1.00
4813;DHT22;2420;51.202;8.698;2024-01-10T08:36:22;-5.90;1.00
4813;DHT22;2420;51.202;8.698;2024-01-10T08:38:50;-5.80;1.00
4813;DHT22;2420;51.202;8.698;2024-01-10T08:41:15;-5.60;1.00
4813;DHT22;2420;51.202;8.698;2024-01-10T08:43:41;-5.80;1.00
4813;DHT22;2420;51.202;8.698;2024-01-10T08:46:08;-5.70;1.00
4813;DHT22;2420;51.202;8.698;2024-01-10T08:48:34;-5.60;1.00
4813;DHT22;2420;51.202;8.698;2024-01-10T08:51:00;-5.50;1.00
4813;DHT22;2420;51.202;8.698;2024-01-10T08:53:25;-5.40;1.00
4813;DHT22;2420;51.202;8.698;2024-01-10T08:55:51;-5.30;1.00
4813;DHT22;2420;51.202;8.698;2024-01-10T08:58:16;-5.10;1.00
4813;DHT22;2420;51.202;8.698;2024-01-10T09:00:42;-5.30;1.00
4813;DHT22;2420;51.202;8.698;2024-01-10T09:03:07;-5.30;1.00
4813;DHT22;2420;51.202;8.698;2024-01-10T09:05:34;-5.10;1.00
4813;DHT22;2420;51.202;8.698;2024-01-10T09:07:59;-5.10;1.00
4813;DHT22;2420;51.202;8.698;2024-01-10T09:10:25;-4.90;1.00
4813;DHT22;2420;51.202;8.698;2024-01-10T09:12:54;-4.80;1.00
4813;DHT22;2420;51.202;8.698;2024-01-10T09:15:20;-5.10;1.00
4813;DHT22;2420;51.202;8.698;2024-01-10T09:17:46;-4.80;1.00
4813;DHT22;2420;51.202;8.698;2024-01-10T09:20:12;-5.00;1.00
4813;DHT22;2420;51.202;8.698;2024-01-10T09:22:38;-5.00;1.00
4813;DHT22;2420;51.202;8.698;2024-01-10T09:25:05;-4.80;1.00
4813;DHT22;2420;51.202;8.698;2024-01-10T09:27:34;-4.80;1.00
4813;DHT22;2420;51.202;8.698;2024-01-10T09:30:02;-4.50;1.00
4813;DHT22;2420;51.202;8.698;2024-01-10T09:32:28;-4.80;1.00
4813;DHT22;2420;51.202;8.698;2024-01-10T09:34:55;-4.50;1.00
4813;DHT22;2420;51.202;8.698;2024-01-10T09:37:21;-4.40;1.00
4813;DHT22;2420;51.202;8.698;2024-01-10T09:39:46;-4.30;1.00
4813;DHT22;2420;51.202;8.698;2024-01-10T09:42:12;-4.50;1.00
4813;DHT22;2420;51.202;8.698;2024-01-10T09:44:40;-4.40;1.00
4813;DHT22;2420;51.202;8.698;2024-01-10T09:47:06;-4.50;1.00
4813;DHT22;2420;51.202;8.698;2024-01-10T09:49:31;-4.30;1.00
4813;DHT22;2420;51.202;8.698;2024-01-10T09:51:59;-4.20;1.00
4813;DHT22;2420;51.202;8.698;2024-01-10T09:54:29;-4.30;1.00
4813;DHT22;2420;51.202;8.698;2024-01-10T09:56:55;-4.10;1.00
4813;DHT22;2420;51.202;8.698;2024-01-10T09:59:21;-4.00;1.00
4813;DHT22;2420;51.202;8.698;2024-01-10T10:01:46;-4.20;1.00
4813;DHT22;2420;51.202;8.698;2024-01-10T10:04:12;-4.20;1.00
4813;DHT22;2420;51.202;8.698;2024-01-10T10:06:38;-4.10;1.00
4813;DHT22;2420;51.202;8.698;2024-01-10T10:09:04;-4.20;1.00
4813;DHT22;2420;51.202;8.698;2024-01-10T10:11:30;-4.00;1.00
4813;DHT22;2420;51.202;8.698;2024-01-10T10:13:55;-3.90;1.00
4813;DHT22;2420;51.202;8.698;2024-01-10T10:16:25;-3.90;1.00
4813;DHT22;2420;51.202;8.698;2024-01-10T10:18:54;-3.80;1.00
4813;DHT22;2420;51.202;8.698;2024-01-10T10:21:25;-3.90;1.00
4813;DHT22;2420;51.202;8.698;2024-01-10T10:23:58;-4.00;1.00
4813;DHT22;2420;51.202;8.698;2024-01-10T10:26:26;-3.80;1.00
4813;DHT22;2420;51.202;8.698;2024-01-10T10:28:52;-4.00;1.00
4813;DHT22;2420;51.202;8.698;2024-01-10T10:31:19;-3.90;1.00
4813;DHT22;2420;51.202;8.698;2024-01-10T10:33:45;-3.70;1.00
4813;DHT22;2420;51.202;8.698;2024-01-10T10:36:13;-3.90;1.00
4813;DHT22;2420;51.202;8.698;2024-01-10T10:38:39;-3.80;1.00
4813;DHT22;2420;51.202;8.698;2024-01-10T10:41:05;-3.70;1.00
4813;DHT22;2420;51.202;8.698;2024-01-10T10:43:39;-3.60;1.00
4813;DHT22;2420;51.202;8.698;2024-01-10T10:46:05;-3.50;1.00
4813;DHT22;2420;51.202;8.698;2024-01-10T10:48:40;-3.50;1.00
4813;DHT22;2420;51.202;8.698;2024-01-10T10:51:22;-3.50;1.00
4813;DHT22;2420;51.202;8.698;2024-01-10T10:53:51;-3.40;1.00
4813;DHT22;2420;51.202;8.698;2024-01-10T10:56:17;-3.50;1.00
4813;DHT22;2420;51.202;8.698;2024-01-10T10:58:44;-3.50;1.00
4813;DHT22;2420;51.202;8.698;2024-01-10T11:01:12;-3.50;1.00
4813;DHT22;2420;51.202;8.698;2024-01-10T11:03:39;-3.50;1.00
4813;DHT22;2420;51.202;8.698;2024-01-10T11:06:14;-3.20;1.00
4813;DHT22;2420;51.202;8.698;2024-01-10T11:08:56;-3.30;1.00
4813;DHT22;2420;51.202;8.698;2024-01-10T11:12:09;-3.40;1.00
4813;DHT22;2420;51.202;8.698;2024-01-10T11:23:38;-3.20;1.00
4813;DHT22;2420;51.202;8.698;2024-01-10T11:26:04;-3.20;1.00
4813;DHT22;2420;51.202;8.698;2024-01-10T11:28:31;-3.20;1.00
4813;DHT22;2420;51.202;8.698;2024-01-10T11:30:56;-3.10;1.00
4813;DHT22;2420;51.202;8.698;2024-01-10T11:33:34;-3.10;1.00
4813;DHT22;2420;51.202;8.698;2024-01-10T11:38:50;-3.10;1.00
4813;DHT22;2420;51.202;8.698;2024-01-10T11:41:23;-3.00;1.00
4813;DHT22;2420;51.202;8.698;2024-01-10T11:46:34;-2.80;1.00
4813;DHT22;2420;51.202;8.698;2024-01-10T11:49:00;-2.90;1.00
4813;DHT22;2420;51.202;8.698;2024-01-10T11:51:26;-2.90;1.00
4813;DHT22;2420;51.202;8.698;2024-01-10T11:53:51;-2.80;1.00
4813;DHT22;2420;51.202;8.698;2024-01-10T11:56:18;-2.70;1.00
4813;DHT22;2420;51.202;8.698;2024-01-10T11:58:55;-2.50;1.00
4813;DHT22;2420;51.202;8.698;2024-01-10T12:01:21;-2.60;1.00
4813;DHT22;2420;51.202;8.698;2024-01-10T12:03:49;-2.50;1.00
4813;DHT22;2420;51.202;8.698;2024-01-10T12:06:16;-2.50;1.00
4813;DHT22;2420;51.202;8.698;2024-01-10T12:08:43;-2.40;1.00
4813;DHT22;2420;51.202;8.698;2024-01-10T12:11:08;-2.40;1.00
4813;DHT22;2420;51.202;8.698;2024-01-10T12:13:34;-2.40;1.00
4813;DHT22;2420;51.202;8.698;2024-01-10T12:16:00;-2.40;1.00
4813;DHT22;2420;51.202;8.698;2024-01-10T12:18:26;-2.30;1.00
4813;DHT22;2420;51.202;8.698;2024-01-10T12:20:51;-2.40;1.00
4813;DHT22;2420;51.202;8.698;2024-01-10T12:23:17;-2.50;1.00
4813;DHT22;2420;51.202;8.698;2024-01-10T12:25:42;-2.50;1.00
4813;DHT22;2420;51.202;8.698;2024-01-10T12:28:08;-2.40;1.00
4813;DHT22;2420;51.202;8.698;2024-01-10T12:30:33;-2.50;1.00
4813;DHT22;2420;51.202;8.698;2024-01-10T12:33:00;-2.40;1.00
4813;DHT22;2420;51.202;8.698;2024-01-10T12:35:25;-2.40;1.00
4813;DHT22;2420;51.202;8.698;2024-01-10T12:37:55;-2.40;1.00
4813;DHT22;2420;51.202;8.698;2024-01-10T12:40:21;-2.40;1.00
4813;DHT22;2420;51.202;8.698;2024-01-10T12:42:47;-2.50;1.00
4813;DHT22;2420;51.202;8.698;2024-01-10T12:45:22;-2.50;1.00
4813;DHT22;2420;51.202;8.698;2024-01-10T12:47:48;-2.50;1.00
4813;DHT22;2420;51.202;8.698;2024-01-10T12:50:14;-2.50;1.00
4813;DHT22;2420;51.202;8.698;2024-01-10T12:52:40;-2.40;1.00
4813;DHT22;2420;51.202;8.698;2024-01-10T12:55:08;-2.40;1.00
4813;DHT22;2420;51.202;8.698;2024-01-10T12:57:33;-2.50;1.00
4813;DHT22;2420;51.202;8.698;2024-01-10T12:59:59;-2.50;1.00
4813;DHT22;2420;51.202;8.698;2024-01-10T13:02:24;-2.30;1.00
4813;DHT22;2420;51.202;8.698;2024-01-10T13:04:50;-2.50;1.00
4813;DHT22;2420;51.202;8.698;2024-01-10T13:07:16;-2.30;1.00
4813;DHT22;2420;51.202;8.698;2024-01-10T13:09:41;-2.40;1.00
4813;DHT22;2420;51.202;8.698;2024-01-10T13:12:07;-2.30;1.00
4813;DHT22;2420;51.202;8.698;2024-01-10T13:14:33;-2.30;1.00
4813;DHT22;2420;51.202;8.698;2024-01-10T13:16:59;-2.30;1.00
4813;DHT22;2420;51.202;8.698;2024-01-10T13:19:24;-2.30;1.00
4813;DHT22;2420;51.202;8.698;2024-01-10T13:21:51;-2.30;1.00
4813;DHT22;2420;51.202;8.698;2024-01-10T13:24:18;-2.40;1.00
4813;DHT22;2420;51.202;8.698;2024-01-10T13:26:44;-2.40;1.00
4813;DHT22;2420;51.202;8.698;2024-01-10T13:29:10;-2.50;1.00
4813;DHT22;2420;51.202;8.698;2024-01-10T13:31:35;-2.40;1.00
4813;DHT22;2420;51.202;8.698;2024-01-10T13:34:01;-2.40;1.00
4813;DHT22;2420;51.202;8.698;2024-01-10T13:36:29;-2.50;1.00
4813;DHT22;2420;51.202;8.698;2024-01-10T13:38:55;-2.50;1.00
4813;DHT22;2420;51.202;8.698;2024-01-10T13:41:21;-2.60;1.00
4813;DHT22;2420;51.202;8.698;2024-01-10T13:43:47;-2.70;1.00
4813;DHT22;2420;51.202;8.698;2024-01-10T13:46:12;-2.60;1.00
4813;DHT22;2420;51.202;8.698;2024-01-10T13:48:38;-2.70;1.00
4813;DHT22;2420;51.202;8.698;2024-01-10T13:51:04;-2.60;1.00
4813;DHT22;2420;51.202;8.698;2024-01-10T13:53:29;-2.70;1.00
4813;DHT22;2420;51.202;8.698;2024-01-10T13:55:55;-2.50;1.00
4813;DHT22;2420;51.202;8.698;2024-01-10T13:58:20;-2.50;1.00
4813;DHT22;2420;51.202;8.698;2024-01-10T14:00:49;-2.50;1.00
4813;DHT22;2420;51.202;8.698;2024-01-10T14:03:15;-2.50;1.00
4813;DHT22;2420;51.202;8.698;2024-01-10T14:05:41;-2.30;1.00
4813;DHT22;2420;51.202;8.698;2024-01-10T14:08:07;-2.40;1.00
4813;DHT22;2420;51.202;8.698;2024-01-10T14:10:34;-2.40;1.00
4813;DHT22;2420;51.202;8.698;2024-01-10T14:12:59;-2.40;1.00
4813;DHT22;2420;51.202;8.698;2024-01-10T14:15:25;-2.30;1.00
4813;DHT22;2420;51.202;8.698;2024-01-10T14:17:51;-2.30;1.00
4813;DHT22;2420;51.202;8.698;2024-01-10T14:20:16;-2.30;1.00
4813;DHT22;2420;51.202;8.698;2024-01-10T14:22:42;-2.30;1.00
4813;DHT22;2420;51.202;8.698;2024-01-10T14:25:08;-2.20;1.00
4813;DHT22;2420;51.202;8.698;2024-01-10T14:27:35;-2.30;1.00
4813;DHT22;2420;51.202;8.698;2024-01-10T14:30:00;-2.20;1.00
4813;DHT22;2420;51.202;8.698;2024-01-10T14:32:28;-2.20;1.00
4813;DHT22;2420;51.202;8.698;2024-01-10T14:34:54;-2.20;1.00
4813;DHT22;2420;51.202;8.698;2024-01-10T14:37:20;-2.20;1.00
4813;DHT22;2420;51.202;8.698;2024-01-10T14:39:46;-2.10;1.00
4813;DHT22;2420;51.202;8.698;2024-01-10T14:42:11;-2.20;1.00
4813;DHT22;2420;51.202;8.698;2024-01-10T14:44:38;-2.30;1.00
4813;DHT22;2420;51.202;8.698;2024-01-10T14:47:05;-2.40;1.00
4813;DHT22;2420;51.202;8.698;2024-01-10T14:49:32;-2.40;1.00
4813;DHT22;2420;51.202;8.698;2024-01-10T14:51:57;-2.40;1.00
4813;DHT22;2420;51.202;8.698;2024-01-10T14:54:23;-2.40;1.00
4813;DHT22;2420;51.202;8.698;2024-01-10T14:56:49;-2.40;1.00
4813;DHT22;2420;51.202;8.698;2024-01-10T14:59:15;-2.40;1.00
4813;DHT22;2420;51.202;8.698;2024-01-10T15:01:45;-2.40;1.00
4813;DHT22;2420;51.202;8.698;2024-01-10T15:04:11;-2.40;1.00
4813;DHT22;2420;51.202;8.698;2024-01-10T15:06:42;-2.50;1.00
4813;DHT22;2420;51.202;8.698;2024-01-10T15:09:08;-2.50;1.00
4813;DHT22;2420;51.202;8.698;2024-01-10T15:11:35;-2.50;1.00
4813;DHT22;2420;51.202;8.698;2024-01-10T15:14:00;-2.60;1.00
4813;DHT22;2420;51.202;8.698;2024-01-10T15:16:26;-2.60;1.00
4813;DHT22;2420;51.202;8.698;2024-01-10T15:18:52;-2.70;1.00
4813;DHT22;2420;51.202;8.698;2024-01-10T15:21:17;-2.70;1.00
4813;DHT22;2420;51.202;8.698;2024-01-10T15:23:45;-2.70;1.00
4813;DHT22;2420;51.202;8.698;2024-01-10T15:26:15;-2.80;1.00
4813;DHT22;2420;51.202;8.698;2024-01-10T15:28:42;-2.80;1.00
4813;DHT22;2420;51.202;8.698;2024-01-10T15:31:14;-2.80;1.00
4813;DHT22;2420;51.202;8.698;2024-01-10T15:33:40;-2.90;1.00
4813;DHT22;2420;51.202;8.698;2024-01-10T15:36:07;-2.90;1.00
4813;DHT22;2420;51.202;8.698;2024-01-10T15:38:35;-2.80;1.00
4813;DHT22;2420;51.202;8.698;2024-01-10T15:41:01;-2.90;1.00
4813;DHT22;2420;51.202;8.698;2024-01-10T15:43:27;-3.00;1.00
4813;DHT22;2420;51.202;8.698;2024-01-10T15:45:53;-3.10;1.00
4813;DHT22;2420;51.202;8.698;2024-01-10T15:48:19;-3.00;1.00
4813;DHT22;2420;51.202;8.698;2024-01-10T15:50:44;-3.20;1.00
4813;DHT22;2420;51.202;8.698;2024-01-10T15:53:10;-3.30;1.00
4813;DHT22;2420;51.202;8.698;2024-01-10T15:55:35;-3.10;1.00
4813;DHT22;2420;51.202;8.698;2024-01-10T15:58:05;-3.40;1.00
4813;DHT22;2420;51.202;8.698;2024-01-10T16:00:32;-3.30;1.00
4813;DHT22;2420;51.202;8.698;2024-01-10T16:02:57;-3.50;1.00
4813;DHT22;2420;51.202;8.698;2024-01-10T16:05:23;-3.30;1.00
4813;DHT22;2420;51.202;8.698;2024-01-10T16:07:49;-3.50;1.00
4813;DHT22;2420;51.202;8.698;2024-01-10T16:10:16;-3.50;1.00
4813;DHT22;2420;51.202;8.698;2024-01-10T16:12:43;-3.50;1.00
4813;DHT22;2420;51.202;8.698;2024-01-10T16:15:09;-3.50;1.00
4813;DHT22;2420;51.202;8.698;2024-01-10T16:17:35;-3.70;1.00
4813;DHT22;2420;51.202;8.698;2024-01-10T16:20:01;-3.60;1.00
4813;DHT22;2420;51.202;8.698;2024-01-10T16:22:27;-3.80;1.00
4813;DHT22;2420;51.202;8.698;2024-01-10T16:24:52;-3.80;1.00